createdAt,value
2022-12-12T00:00:17.024Z,3.01
2022-12-12T00:01:17.172Z,2.94
2022-12-12T00:02:17.486Z,3.01
2022-12-12T00:03:17.739Z,2.97
2022-12-12T00:04:17.705Z,2.97
2022-12-12T00:05:17.870Z,2.91
2022-12-12T00:06:18.042Z,2.91
2022-12-12T00:07:18.190Z,2.90
2022-12-12T00:08:18.582Z,2.90
2022-12-12T00:09:18.520Z,2.91
2022-12-12T00:10:18.695Z,2.86
2022-12-12T00:11:18.852Z,2.90
2022-12-12T00:12:19.013Z,2.90
2022-12-12T00:13:19.202Z,2.91
2022-12-12T00:14:19.377Z,2.87
2022-12-12T00:15:19.545Z,2.93
2022-12-12T00:16:19.741Z,2.94
2022-12-12T00:17:19.864Z,2.90
2022-12-12T00:18:20.063Z,2.96
2022-12-12T00:19:20.192Z,2.94
2022-12-12T00:20:20.367Z,2.94
2022-12-12T00:21:20.579Z,2.93
2022-12-12T00:22:20.692Z,2.93
2022-12-12T00:23:20.895Z,2.94
2022-12-12T00:24:21.016Z,2.96
2022-12-12T00:25:21.196Z,2.93
2022-12-12T00:26:21.351Z,2.96
2022-12-12T00:27:21.508Z,3.01
2022-12-12T00:28:21.698Z,2.97
2022-12-12T00:29:21.846Z,2.99
2022-12-12T00:30:22.005Z,2.94
2022-12-12T00:31:22.202Z,2.96
2022-12-12T00:32:22.352Z,2.96
2022-12-12T00:33:22.521Z,3.01
2022-12-12T00:34:22.676Z,3.01
2022-12-12T00:35:22.854Z,2.94
2022-12-12T00:36:23.005Z,2.91
2022-12-12T00:37:23.175Z,2.91
2022-12-12T00:38:23.355Z,2.88
2022-12-12T00:39:23.527Z,2.88
2022-12-12T00:40:23.676Z,2.88
2022-12-12T00:41:23.843Z,2.80
2022-12-12T00:42:24.023Z,2.80
2022-12-12T00:43:24.198Z,2.84
2022-12-12T00:44:24.354Z,2.75
2022-12-12T00:45:24.516Z,2.77
2022-12-12T00:46:24.723Z,2.77
2022-12-12T00:47:24.854Z,2.80
2022-12-12T00:48:25.017Z,2.75
2022-12-12T00:49:25.176Z,2.75
2022-12-12T00:50:25.342Z,2.80
2022-12-12T00:51:25.523Z,2.75
2022-12-12T00:52:25.678Z,2.71
2022-12-12T00:53:25.853Z,2.74
2022-12-12T00:54:26.014Z,2.71
2022-12-12T00:55:26.177Z,2.71
2022-12-12T00:56:26.382Z,2.71
2022-12-12T00:57:26.510Z,2.67
2022-12-12T00:58:26.662Z,2.65
2022-12-12T00:59:26.829Z,2.64
2022-12-12T01:00:26.999Z,2.59
2022-12-12T01:01:27.239Z,2.62
2022-12-12T01:02:28.437Z,2.65
2022-12-12T01:03:27.485Z,2.57
2022-12-12T01:04:27.645Z,2.57
2022-12-12T01:05:27.810Z,2.65
2022-12-12T01:06:27.992Z,2.62
2022-12-12T01:07:28.142Z,2.65
2022-12-12T01:08:28.370Z,2.62
2022-12-12T01:09:28.481Z,2.68
2022-12-12T01:10:28.661Z,2.68
2022-12-12T01:11:28.828Z,2.72
2022-12-12T01:12:28.980Z,2.68
2022-12-12T01:13:29.143Z,2.74
2022-12-12T01:14:29.311Z,2.75
2022-12-12T01:15:29.513Z,2.77
2022-12-12T01:16:29.679Z,2.75
2022-12-12T01:17:29.816Z,2.77
2022-12-12T01:18:29.972Z,2.84
2022-12-12T01:19:30.141Z,2.83
2022-12-12T01:20:30.321Z,2.83
2022-12-12T01:21:30.473Z,2.86
2022-12-12T01:22:30.641Z,2.93
2022-12-12T01:23:30.810Z,2.90
2022-12-12T01:24:30.974Z,2.91
2022-12-12T01:25:31.153Z,2.88
2022-12-12T01:26:31.305Z,2.86
2022-12-12T01:27:31.468Z,2.87
2022-12-12T01:28:31.634Z,2.87
2022-12-12T01:29:31.814Z,2.90
2022-12-12T01:30:31.989Z,2.88
2022-12-12T01:31:32.217Z,2.90
2022-12-12T01:32:32.297Z,2.88
2022-12-12T01:33:32.490Z,2.88
2022-12-12T01:34:32.632Z,2.87
2022-12-12T01:35:32.815Z,2.96
2022-12-12T01:36:32.974Z,2.90
2022-12-12T01:37:33.159Z,2.97
2022-12-12T01:38:33.304Z,2.90
2022-12-12T01:39:33.486Z,2.91
2022-12-12T01:40:33.657Z,2.94
2022-12-12T01:41:33.817Z,2.94
2022-12-12T01:42:33.986Z,2.96
2022-12-12T01:43:34.136Z,2.93
2022-12-12T01:44:34.306Z,2.93
2022-12-12T01:45:34.500Z,2.97
2022-12-12T01:46:34.746Z,2.97
2022-12-12T01:47:34.837Z,2.90
2022-12-12T01:48:35.015Z,2.99
2022-12-12T01:49:35.185Z,2.99
2022-12-12T01:50:35.349Z,2.99
2022-12-12T01:51:35.509Z,2.94
2022-12-12T01:52:35.679Z,2.97
2022-12-12T01:53:35.856Z,2.96
2022-12-12T01:54:36.008Z,2.94
2022-12-12T01:55:36.208Z,2.97
2022-12-12T01:56:36.355Z,2.96
2022-12-12T01:57:36.519Z,2.96
2022-12-12T01:58:36.692Z,2.91
2022-12-12T01:59:36.848Z,2.91
2022-12-12T02:00:37.105Z,2.94
2022-12-12T02:01:37.290Z,2.94
2022-12-12T02:02:37.347Z,2.99
2022-12-12T02:03:37.520Z,2.96
2022-12-12T02:04:37.673Z,2.97
2022-12-12T02:05:37.855Z,3.01
2022-12-12T02:06:38.010Z,2.96
2022-12-12T02:07:38.190Z,2.97
2022-12-12T02:08:38.352Z,2.97
2022-12-12T02:09:38.522Z,2.99
2022-12-12T02:10:38.695Z,3.01
2022-12-12T02:11:38.859Z,3.05
2022-12-12T02:12:39.012Z,3.02
2022-12-12T02:13:39.191Z,3.04
2022-12-12T02:14:39.343Z,3.05
2022-12-12T02:15:39.536Z,3.02
2022-12-12T02:16:39.734Z,3.11
2022-12-12T02:17:39.866Z,3.05
2022-12-12T02:18:40.022Z,3.04
2022-12-12T02:19:40.192Z,3.11
2022-12-12T02:20:40.354Z,3.12
2022-12-12T02:21:40.562Z,3.05
2022-12-12T02:22:40.684Z,3.09
2022-12-12T02:23:40.853Z,3.14
2022-12-12T02:24:41.007Z,3.12
2022-12-12T02:25:41.182Z,3.12
2022-12-12T02:26:41.342Z,3.12
2022-12-12T02:27:41.493Z,3.22
2022-12-12T02:28:41.663Z,3.22
2022-12-12T02:29:41.827Z,3.17
2022-12-12T02:30:42.013Z,3.19
2022-12-12T02:31:42.191Z,3.22
2022-12-12T02:32:42.342Z,3.15
2022-12-12T02:33:42.504Z,3.19
2022-12-12T02:34:42.672Z,3.22
2022-12-12T02:35:42.857Z,3.17
2022-12-12T02:36:42.999Z,3.23
2022-12-12T02:37:43.168Z,3.22
2022-12-12T02:38:43.323Z,3.17
2022-12-12T02:39:43.505Z,3.22
2022-12-12T02:40:43.675Z,3.23
2022-12-12T02:41:43.834Z,3.23
2022-12-12T02:42:43.996Z,3.24
2022-12-12T02:43:44.167Z,3.19
2022-12-12T02:44:44.325Z,3.20
2022-12-12T02:45:44.514Z,3.24
2022-12-12T02:46:44.665Z,3.20
2022-12-12T02:47:44.830Z,3.22
2022-12-12T02:48:44.991Z,3.22
2022-12-12T02:49:45.158Z,3.17
2022-12-12T02:50:45.356Z,3.19
2022-12-12T02:51:45.487Z,3.11
2022-12-12T02:52:45.639Z,3.09
2022-12-12T02:53:45.804Z,3.14
2022-12-12T02:54:45.966Z,3.14
2022-12-12T02:55:46.148Z,3.19
2022-12-12T02:56:46.311Z,3.15
2022-12-12T02:57:46.468Z,3.19
2022-12-12T02:58:46.636Z,3.22
2022-12-12T02:59:46.806Z,3.22
2022-12-12T03:00:47.054Z,3.20
2022-12-12T03:01:47.206Z,3.24
2022-12-12T03:02:47.321Z,3.23
2022-12-12T03:03:47.489Z,3.24
2022-12-12T03:04:47.655Z,3.23
2022-12-12T03:05:47.834Z,3.24
2022-12-12T03:06:47.988Z,3.19
2022-12-12T03:07:48.246Z,3.24
2022-12-12T03:08:48.343Z,3.24
2022-12-12T03:09:48.507Z,3.23
2022-12-12T03:10:48.668Z,3.22
2022-12-12T03:11:48.832Z,3.26
2022-12-12T03:12:48.993Z,3.26
2022-12-12T03:13:49.167Z,3.23
2022-12-12T03:14:49.350Z,3.26
2022-12-12T03:15:49.534Z,3.27
2022-12-12T03:16:49.650Z,3.26
2022-12-12T03:17:49.828Z,3.26
2022-12-12T03:18:49.981Z,3.30
2022-12-12T03:19:50.147Z,3.29
2022-12-12T03:20:50.322Z,3.30
2022-12-12T03:21:50.502Z,3.32
2022-12-12T03:22:50.658Z,3.29
2022-12-12T03:23:50.832Z,3.33
2022-12-12T03:24:50.993Z,3.32
2022-12-12T03:25:51.170Z,3.33
2022-12-12T03:26:51.321Z,3.32
2022-12-12T03:27:51.481Z,3.35
2022-12-12T03:28:51.651Z,3.38
2022-12-12T03:29:51.812Z,3.38
2022-12-12T03:30:51.997Z,3.38
2022-12-12T03:31:52.295Z,3.35
2022-12-12T03:32:52.318Z,3.38
2022-12-12T03:33:52.485Z,3.42
2022-12-12T03:34:52.654Z,3.42
2022-12-12T03:35:52.843Z,3.44
2022-12-12T03:36:52.992Z,3.41
2022-12-12T03:37:53.167Z,3.37
2022-12-12T03:38:53.332Z,3.45
2022-12-12T03:39:53.494Z,3.44
2022-12-12T03:40:53.668Z,3.42
2022-12-12T03:41:53.824Z,3.45
2022-12-12T03:42:53.985Z,3.42
2022-12-12T03:43:54.161Z,3.45
2022-12-12T03:44:54.324Z,3.45
2022-12-12T03:45:54.574Z,3.45
2022-12-12T03:46:54.664Z,3.42
2022-12-12T03:47:54.836Z,3.45
2022-12-12T03:48:54.986Z,3.49
2022-12-12T03:49:55.191Z,3.45
2022-12-12T03:50:55.305Z,3.48
2022-12-12T03:51:55.474Z,3.44
2022-12-12T03:52:55.636Z,3.51
2022-12-12T03:53:55.806Z,3.51
2022-12-12T03:54:55.980Z,3.49
2022-12-12T03:55:56.167Z,3.48
2022-12-12T03:56:56.309Z,3.51
2022-12-12T03:57:56.472Z,3.49
2022-12-12T03:58:56.638Z,3.51
2022-12-12T03:59:56.818Z,3.48
2022-12-12T04:00:57.005Z,3.55
2022-12-12T04:01:57.178Z,3.52
2022-12-12T04:02:57.305Z,3.51
2022-12-12T04:03:57.477Z,3.52
2022-12-12T04:04:57.642Z,3.51
2022-12-12T04:05:57.798Z,3.55
2022-12-12T04:06:57.967Z,3.51
2022-12-12T04:07:58.176Z,3.60
2022-12-12T04:08:58.297Z,3.55
2022-12-12T04:09:58.485Z,3.60
2022-12-12T04:10:58.638Z,3.59
2022-12-12T04:11:58.809Z,3.56
2022-12-12T04:12:58.995Z,3.59
2022-12-12T04:13:59.147Z,3.58
2022-12-12T04:14:59.324Z,3.59
2022-12-12T04:15:59.487Z,3.62
2022-12-12T04:16:59.685Z,3.60
2022-12-12T04:17:59.835Z,3.60
2022-12-12T04:18:59.995Z,3.65
2022-12-12T04:20:00.287Z,3.67
2022-12-12T04:21:00.345Z,3.63
2022-12-12T04:22:00.511Z,3.65
2022-12-12T04:23:00.665Z,3.65
2022-12-12T04:24:00.831Z,3.63
2022-12-12T04:25:01.017Z,3.63
2022-12-12T04:26:01.201Z,3.66
2022-12-12T04:27:01.320Z,3.66
2022-12-12T04:28:01.503Z,3.69
2022-12-12T04:29:01.652Z,3.65
2022-12-12T04:30:01.821Z,3.67
2022-12-12T04:31:02.021Z,3.65
2022-12-12T04:32:02.203Z,3.66
2022-12-12T04:33:02.341Z,3.65
2022-12-12T04:34:02.506Z,3.65
2022-12-12T04:35:02.670Z,3.67
2022-12-12T04:36:02.872Z,3.65
2022-12-12T04:37:02.993Z,3.65
2022-12-12T04:38:03.157Z,3.65
2022-12-12T04:39:03.323Z,3.70
2022-12-12T04:40:03.496Z,3.66
2022-12-12T04:41:03.667Z,3.66
2022-12-12T04:42:03.824Z,3.65
2022-12-12T04:43:03.984Z,3.69
2022-12-12T04:44:04.177Z,3.69
2022-12-12T04:45:04.342Z,3.66
2022-12-12T04:46:04.566Z,3.63
2022-12-12T04:47:04.683Z,3.67
2022-12-12T04:48:04.837Z,3.67
2022-12-12T04:49:04.998Z,3.66
2022-12-12T04:50:05.166Z,3.70
2022-12-12T04:51:05.324Z,3.66
2022-12-12T04:52:05.505Z,3.69
2022-12-12T04:53:05.663Z,3.70
2022-12-12T04:54:05.825Z,3.70
2022-12-12T04:55:05.997Z,3.70
2022-12-12T04:56:06.166Z,3.66
2022-12-12T04:57:06.385Z,3.70
2022-12-12T04:58:06.508Z,3.74
2022-12-12T04:59:06.673Z,3.74
2022-12-12T05:00:06.836Z,3.70
2022-12-12T05:01:07.043Z,3.73
2022-12-12T05:02:07.248Z,3.69
2022-12-12T05:03:07.375Z,3.73
2022-12-12T05:04:07.526Z,3.69
2022-12-12T05:05:07.696Z,3.74
2022-12-12T05:06:07.903Z,3.73
2022-12-12T05:07:08.029Z,3.70
2022-12-12T05:08:08.220Z,3.73
2022-12-12T05:09:08.381Z,3.77
2022-12-12T05:10:08.540Z,3.73
2022-12-12T05:11:08.717Z,3.75
2022-12-12T05:12:08.868Z,3.74
2022-12-12T05:13:09.037Z,3.73
2022-12-12T05:14:09.197Z,3.74
2022-12-12T05:15:09.371Z,3.77
2022-12-12T05:16:09.538Z,3.80
2022-12-12T05:17:09.713Z,3.80
2022-12-12T05:18:09.859Z,3.78
2022-12-12T05:19:10.029Z,3.78
2022-12-12T05:20:10.187Z,3.77
2022-12-12T05:21:10.373Z,3.78
2022-12-12T05:22:10.529Z,3.80
2022-12-12T05:23:10.700Z,3.81
2022-12-12T05:24:10.869Z,3.80
2022-12-12T05:25:11.271Z,3.81
2022-12-12T05:26:11.243Z,3.80
2022-12-12T05:27:11.401Z,3.84
2022-12-12T05:28:11.570Z,3.85
2022-12-12T05:29:11.739Z,3.81
2022-12-12T05:30:11.909Z,3.87
2022-12-12T05:31:12.163Z,3.85
2022-12-12T05:32:12.231Z,3.85
2022-12-12T05:33:12.398Z,3.85
2022-12-12T05:34:12.561Z,3.87
2022-12-12T05:35:12.938Z,3.88
2022-12-12T05:36:12.922Z,3.87
2022-12-12T05:37:13.103Z,3.93
2022-12-12T05:38:13.269Z,3.85
2022-12-12T05:39:13.423Z,3.92
2022-12-12T05:40:13.600Z,3.92
2022-12-12T05:41:13.770Z,3.93
2022-12-12T05:42:13.943Z,3.93
2022-12-12T05:43:14.115Z,3.90
2022-12-12T05:44:14.267Z,3.95
2022-12-12T05:45:14.766Z,3.92
2022-12-12T05:46:14.701Z,3.93
2022-12-12T05:47:14.843Z,3.96
2022-12-12T05:48:18.363Z,3.93
2022-12-12T05:49:16.153Z,3.95
2022-12-12T05:50:15.325Z,3.95
2022-12-12T05:51:15.517Z,3.99
2022-12-12T05:52:15.682Z,3.96
2022-12-12T05:53:15.861Z,3.99
2022-12-12T05:54:16.054Z,3.99
2022-12-12T05:55:16.369Z,4.02
2022-12-12T05:56:16.408Z,3.99
2022-12-12T05:57:16.670Z,3.99
2022-12-12T05:58:16.819Z,4.01
2022-12-12T05:59:16.976Z,4.05
2022-12-12T06:00:17.153Z,4.03
2022-12-12T06:01:17.345Z,4.02
2022-12-12T06:02:17.604Z,4.05
2022-12-12T06:03:17.700Z,4.03
2022-12-12T06:04:17.934Z,4.03
2022-12-12T06:05:18.015Z,4.01
2022-12-12T06:06:18.206Z,4.02
2022-12-12T06:07:18.422Z,4.02
2022-12-12T06:08:22.231Z,4.03
2022-12-12T06:09:19.736Z,4.03
2022-12-12T06:10:18.901Z,4.03
2022-12-12T06:11:19.085Z,4.06
2022-12-12T06:12:19.286Z,4.06
2022-12-12T06:13:19.426Z,4.05
2022-12-12T06:14:19.616Z,4.05
2022-12-12T06:15:19.806Z,4.03
2022-12-12T06:16:20.067Z,4.06
2022-12-12T06:17:20.194Z,4.02
2022-12-12T06:18:20.321Z,4.02
2022-12-12T06:19:20.515Z,4.02
2022-12-12T06:20:20.670Z,4.03
2022-12-12T06:21:20.861Z,4.05
2022-12-12T06:22:21.023Z,4.01
2022-12-12T06:23:21.187Z,4.02
2022-12-12T06:24:21.320Z,4.03
2022-12-12T06:25:21.506Z,3.96
2022-12-12T06:26:21.691Z,4.01
2022-12-12T06:27:21.927Z,4.06
2022-12-12T06:28:22.065Z,4.02
2022-12-12T06:29:22.260Z,3.96
2022-12-12T06:30:22.419Z,4.01
2022-12-12T06:31:22.652Z,3.99
2022-12-12T06:32:22.810Z,3.98
2022-12-12T06:33:22.959Z,3.98
2022-12-12T06:34:23.142Z,3.99
2022-12-12T06:35:23.325Z,3.99
2022-12-12T06:36:23.534Z,3.98
2022-12-12T06:37:23.737Z,3.99
2022-12-12T06:38:23.849Z,4.02
2022-12-12T06:39:24.034Z,4.03
2022-12-12T06:40:24.389Z,4.02
2022-12-12T06:41:24.390Z,4.03
2022-12-12T06:42:24.553Z,4.01
2022-12-12T06:43:24.703Z,4.03
2022-12-12T06:44:24.859Z,3.99
2022-12-12T06:45:25.053Z,4.01
2022-12-12T06:46:25.242Z,4.03
2022-12-12T06:47:25.442Z,3.98
2022-12-12T06:48:25.583Z,3.98
2022-12-12T06:49:25.777Z,4.03
2022-12-12T06:50:25.943Z,4.03
2022-12-12T06:51:26.088Z,4.01
2022-12-12T06:52:26.273Z,4.02
2022-12-12T06:53:26.489Z,3.99
2022-12-12T06:54:26.647Z,4.06
2022-12-12T06:55:26.851Z,4.01
2022-12-12T06:56:27.011Z,4.02
2022-12-12T06:57:27.194Z,3.98
2022-12-12T06:58:27.367Z,4.01
2022-12-12T06:59:27.565Z,4.03
2022-12-12T07:00:27.775Z,3.99
2022-12-12T07:01:28.005Z,4.05
2022-12-12T07:02:30.227Z,4.02
2022-12-12T07:03:28.255Z,4.06
2022-12-12T07:04:28.455Z,4.02
2022-12-12T07:05:28.630Z,4.02
2022-12-12T07:06:28.785Z,3.99
2022-12-12T07:07:29.019Z,4.01
2022-12-12T07:08:29.154Z,4.05
2022-12-12T07:09:29.315Z,4.03
2022-12-12T07:10:29.523Z,4.03
2022-12-12T07:11:29.674Z,4.05
2022-12-12T07:12:29.870Z,4.02
2022-12-12T07:13:30.016Z,4.03
2022-12-12T07:14:30.202Z,4.05
2022-12-12T07:15:30.346Z,4.02
2022-12-12T07:16:30.528Z,4.02
2022-12-12T07:17:30.719Z,4.05
2022-12-12T07:18:30.874Z,4.05
2022-12-12T07:19:31.070Z,4.05
2022-12-12T07:20:31.230Z,3.99
2022-12-12T07:21:31.391Z,4.02
2022-12-12T07:22:31.567Z,4.05
2022-12-12T07:23:31.736Z,4.03
2022-12-12T07:24:31.968Z,4.06
2022-12-12T07:25:32.139Z,4.08
2022-12-12T07:26:32.332Z,4.06
2022-12-12T07:27:32.531Z,4.06
2022-12-12T07:28:32.631Z,4.10
2022-12-12T07:29:32.813Z,4.13
2022-12-12T07:30:32.940Z,4.10
2022-12-12T07:31:33.176Z,4.11
2022-12-12T07:32:33.299Z,4.13
2022-12-12T07:33:43.161Z,4.17
2022-12-12T07:34:34.666Z,4.21
2022-12-12T07:35:33.829Z,4.24
2022-12-12T07:36:34.028Z,4.28
2022-12-12T07:37:34.224Z,4.38
2022-12-12T07:38:34.341Z,4.43
2022-12-12T07:39:34.515Z,4.48
2022-12-12T07:40:34.679Z,4.57
2022-12-12T07:41:34.862Z,4.63
2022-12-12T07:42:35.019Z,4.72
2022-12-12T07:43:38.552Z,4.78
2022-12-12T07:44:36.391Z,4.89
2022-12-12T07:45:35.551Z,4.94
2022-12-12T07:46:35.807Z,5.04
2022-12-12T07:47:35.874Z,5.05
2022-12-12T07:48:36.068Z,5.12
2022-12-12T07:49:36.234Z,5.16
2022-12-12T07:50:36.412Z,5.21
2022-12-12T07:51:36.573Z,5.29
2022-12-12T07:52:36.791Z,5.32
2022-12-12T07:53:36.967Z,5.42
2022-12-12T07:54:37.145Z,5.42
2022-12-12T07:55:37.284Z,5.50
2022-12-12T07:56:37.466Z,5.54
2022-12-12T07:57:37.634Z,5.57
2022-12-12T07:58:37.814Z,5.63
2022-12-12T07:59:38.001Z,5.71
2022-12-12T08:00:38.191Z,5.74
2022-12-12T08:01:38.376Z,5.79
2022-12-12T08:02:38.496Z,5.86
2022-12-12T08:03:38.699Z,5.89
2022-12-12T08:04:38.907Z,5.94
2022-12-12T08:05:39.027Z,5.96
2022-12-12T08:06:39.206Z,5.99
2022-12-12T08:07:39.393Z,6.06
2022-12-12T08:08:39.564Z,6.03
2022-12-12T08:09:39.739Z,6.06
2022-12-12T08:10:39.871Z,6.07
2022-12-12T08:11:45.905Z,6.07
2022-12-12T08:12:41.204Z,6.04
2022-12-12T08:13:40.391Z,6.06
2022-12-12T08:14:40.576Z,6.04
2022-12-12T08:15:40.774Z,6.06
2022-12-12T08:16:40.917Z,6.03
2022-12-12T08:17:41.079Z,6.04
2022-12-12T08:18:41.261Z,6.04
2022-12-12T08:19:41.457Z,6.00
2022-12-12T08:20:41.600Z,6.03
2022-12-12T08:21:41.780Z,6.02
2022-12-12T08:22:41.963Z,6.02
2022-12-12T08:23:42.138Z,6.00
2022-12-12T08:24:42.329Z,6.02
2022-12-12T08:25:42.483Z,6.00
2022-12-12T08:26:42.629Z,5.99
2022-12-12T08:27:42.839Z,5.95
2022-12-12T08:28:42.994Z,5.89
2022-12-12T08:29:43.171Z,5.89
2022-12-12T08:30:43.330Z,5.89
2022-12-12T08:31:43.579Z,5.88
2022-12-12T08:32:43.680Z,5.91
2022-12-12T08:33:43.930Z,5.89
2022-12-12T08:34:44.048Z,5.85
2022-12-12T08:35:44.219Z,5.86
2022-12-12T08:36:44.380Z,5.81
2022-12-12T08:37:44.542Z,5.79
2022-12-12T08:38:44.715Z,5.77
2022-12-12T08:39:44.911Z,5.79
2022-12-12T08:40:45.075Z,5.77
2022-12-12T08:41:45.233Z,5.73
2022-12-12T08:42:45.407Z,5.70
2022-12-12T08:43:45.592Z,5.71
2022-12-12T08:44:45.782Z,5.67
2022-12-12T08:45:45.951Z,5.66
2022-12-12T08:46:46.198Z,5.66
2022-12-12T08:47:46.313Z,5.66
2022-12-12T08:48:46.502Z,5.62
2022-12-12T08:49:46.698Z,5.62
2022-12-12T08:50:46.863Z,5.66
2022-12-12T08:51:47.034Z,5.63
2022-12-12T08:52:47.214Z,5.67
2022-12-12T08:53:47.405Z,5.67
2022-12-12T08:54:47.603Z,5.57
2022-12-12T08:55:47.775Z,5.60
2022-12-12T08:56:47.926Z,5.62
2022-12-12T08:57:48.110Z,5.60
2022-12-12T08:58:48.288Z,5.58
2022-12-12T08:59:48.474Z,5.54
2022-12-12T09:00:48.639Z,5.57
2022-12-12T09:01:48.902Z,5.60
2022-12-12T09:02:49.045Z,5.57
2022-12-12T09:03:49.165Z,5.58
2022-12-12T09:04:49.326Z,5.58
2022-12-12T09:05:49.535Z,5.57
2022-12-12T09:06:49.696Z,5.60
2022-12-12T09:07:49.918Z,5.54
2022-12-12T09:08:50.048Z,5.60
2022-12-12T09:09:50.217Z,5.57
2022-12-12T09:10:50.392Z,5.54
2022-12-12T09:11:50.542Z,5.55
2022-12-12T09:12:50.717Z,5.57
2022-12-12T09:13:50.876Z,5.57
2022-12-12T09:14:51.080Z,5.57
2022-12-12T09:15:51.354Z,5.60
2022-12-12T09:16:51.397Z,5.57
2022-12-12T09:17:51.569Z,5.55
2022-12-12T09:18:51.759Z,5.60
2022-12-12T09:19:51.964Z,5.63
2022-12-12T09:20:52.084Z,5.63
2022-12-12T09:21:52.262Z,5.62
2022-12-12T09:22:52.429Z,5.58
2022-12-12T09:23:52.616Z,5.60
2022-12-12T09:24:52.791Z,5.66
2022-12-12T09:25:52.969Z,5.63
2022-12-12T09:26:53.147Z,5.63
2022-12-12T09:27:53.313Z,5.66
2022-12-12T09:28:53.488Z,5.69
2022-12-12T09:29:53.682Z,5.71
2022-12-12T09:30:53.855Z,5.74
2022-12-12T09:31:54.074Z,5.74
2022-12-12T09:32:54.181Z,5.74
2022-12-12T09:33:54.376Z,5.79
2022-12-12T09:34:54.551Z,5.79
2022-12-12T09:35:54.690Z,5.81
2022-12-12T09:36:54.876Z,5.85
2022-12-12T09:37:55.038Z,5.86
2022-12-12T09:38:55.192Z,5.89
2022-12-12T09:39:55.366Z,5.92
2022-12-12T09:40:55.516Z,5.91
2022-12-12T09:41:55.679Z,5.96
2022-12-12T09:42:55.842Z,6.02
2022-12-12T09:43:55.997Z,6.06
2022-12-12T09:44:56.183Z,6.06
2022-12-12T09:45:56.428Z,6.10
2022-12-12T09:46:56.493Z,6.14
2022-12-12T09:47:57.663Z,6.18
2022-12-12T09:48:56.876Z,6.21
2022-12-12T09:49:57.049Z,6.31
2022-12-12T09:50:57.210Z,6.32
2022-12-12T09:51:57.367Z,6.39
2022-12-12T09:52:57.528Z,6.45
2022-12-12T09:53:57.685Z,6.52
2022-12-12T09:54:57.899Z,6.57
2022-12-12T09:55:58.039Z,6.65
2022-12-12T09:56:58.226Z,6.73
2022-12-12T09:57:58.418Z,6.80
2022-12-12T09:58:58.593Z,6.94
2022-12-12T09:59:58.795Z,7.00
2022-12-12T10:00:58.973Z,7.15
2022-12-12T10:01:59.173Z,7.23
2022-12-12T10:02:59.304Z,7.35
2022-12-12T10:03:59.468Z,7.42
2022-12-12T10:04:59.636Z,7.50
2022-12-12T10:06:20.540Z,7.60
2022-12-12T10:07:00.955Z,7.63
2022-12-12T10:08:00.140Z,7.75
2022-12-12T10:09:00.278Z,7.86
2022-12-12T10:10:00.456Z,7.96
2022-12-12T10:11:00.608Z,8.02
2022-12-12T10:12:04.897Z,8.10
2022-12-12T10:13:01.941Z,8.11
2022-12-12T10:14:01.106Z,8.17
2022-12-12T10:15:01.288Z,8.24
2022-12-12T10:16:01.515Z,8.29
2022-12-12T10:17:01.662Z,8.29
2022-12-12T10:18:01.808Z,8.38
2022-12-12T10:19:01.999Z,8.42
2022-12-12T10:20:02.189Z,8.47
2022-12-12T10:21:02.320Z,8.60
2022-12-12T10:22:02.485Z,8.58
2022-12-12T10:23:02.653Z,8.62
2022-12-12T10:24:02.812Z,8.69
2022-12-12T10:25:02.994Z,8.70
2022-12-12T10:26:03.149Z,8.75
2022-12-12T10:27:03.313Z,8.76
2022-12-12T10:28:03.472Z,8.84
2022-12-12T10:29:03.641Z,8.87
2022-12-12T10:30:03.812Z,8.91
2022-12-12T10:31:03.986Z,8.95
2022-12-12T10:32:04.169Z,9.01
2022-12-12T10:33:04.322Z,9.05
2022-12-12T10:34:04.463Z,9.08
2022-12-12T10:35:04.791Z,9.11
2022-12-12T10:36:04.814Z,9.13
2022-12-12T10:37:04.973Z,9.19
2022-12-12T10:38:05.142Z,9.19
2022-12-12T10:39:05.303Z,9.17
2022-12-12T10:40:05.480Z,9.19
2022-12-12T10:41:05.644Z,9.27
2022-12-12T10:42:05.801Z,9.28
2022-12-12T10:43:05.972Z,9.30
2022-12-12T10:44:06.150Z,9.36
2022-12-12T10:45:06.305Z,9.41
2022-12-12T10:46:06.560Z,9.46
2022-12-12T10:47:06.758Z,9.53
2022-12-12T10:48:06.805Z,9.53
2022-12-12T10:49:06.990Z,9.59
2022-12-12T10:50:12.865Z,9.57
2022-12-12T10:51:08.316Z,9.54
2022-12-12T10:52:07.475Z,9.60
2022-12-12T10:53:07.706Z,9.56
2022-12-12T10:54:07.856Z,9.57
2022-12-12T10:55:08.038Z,9.57
2022-12-12T10:56:08.202Z,9.64
2022-12-12T10:57:08.366Z,9.64
2022-12-12T10:58:08.547Z,9.69
2022-12-12T10:59:08.706Z,9.72
2022-12-12T11:00:08.868Z,9.75
2022-12-12T11:01:09.085Z,9.84
2022-12-12T11:02:10.577Z,9.85
2022-12-12T11:03:09.442Z,9.85
2022-12-12T11:04:09.605Z,9.93
2022-12-12T11:05:09.736Z,9.94
2022-12-12T11:06:09.900Z,9.90
2022-12-12T11:07:10.060Z,10.03
2022-12-12T11:08:10.255Z,9.98
2022-12-12T11:09:10.404Z,10.01
2022-12-12T11:10:10.564Z,10.07
2022-12-12T11:11:10.749Z,10.08
2022-12-12T11:12:10.885Z,10.12
2022-12-12T11:13:11.065Z,10.15
2022-12-12T11:14:11.220Z,10.16
2022-12-12T11:15:11.656Z,10.18
2022-12-12T11:16:13.518Z,10.25
2022-12-12T11:17:11.747Z,10.29
2022-12-12T11:18:11.922Z,10.36
2022-12-12T11:19:12.109Z,10.34
2022-12-12T11:20:12.271Z,10.41
2022-12-12T11:21:12.432Z,10.46
2022-12-12T11:22:12.600Z,10.54
2022-12-12T11:23:18.047Z,10.61
2022-12-12T11:24:13.973Z,10.61
2022-12-12T11:25:13.309Z,10.66
2022-12-12T11:26:13.285Z,10.62
2022-12-12T11:27:13.496Z,10.71
2022-12-12T11:28:13.609Z,10.80
2022-12-12T11:29:13.815Z,10.81
2022-12-12T11:30:13.950Z,10.91
2022-12-12T11:31:14.121Z,10.95
2022-12-12T11:32:14.291Z,10.95
2022-12-12T11:33:14.458Z,11.06
2022-12-12T11:34:14.646Z,11.06
2022-12-12T11:35:15.171Z,11.13
2022-12-12T11:36:14.990Z,11.12
2022-12-12T11:37:15.161Z,11.13
2022-12-12T11:38:15.337Z,11.19
2022-12-12T11:39:15.526Z,11.22
2022-12-12T11:40:15.778Z,11.25
2022-12-12T11:41:15.865Z,11.17
2022-12-12T11:42:16.052Z,11.12
2022-12-12T11:43:16.225Z,11.12
2022-12-12T11:44:20.085Z,11.04
2022-12-12T11:45:16.665Z,11.01
2022-12-12T11:46:16.802Z,10.98
2022-12-12T11:47:16.902Z,11.01
2022-12-12T11:48:17.058Z,11.04
2022-12-12T11:49:17.267Z,11.04
2022-12-12T11:50:17.394Z,10.98
2022-12-12T11:51:17.566Z,11.01
2022-12-12T11:52:17.738Z,10.99
2022-12-12T11:53:17.898Z,10.95
2022-12-12T11:54:18.097Z,10.89
2022-12-12T11:55:18.261Z,10.87
2022-12-12T11:56:18.440Z,10.76
2022-12-12T11:57:18.590Z,10.71
2022-12-12T11:58:18.787Z,10.66
2022-12-12T11:59:18.950Z,10.58
2022-12-12T12:00:19.133Z,10.54
2022-12-12T12:01:19.294Z,10.44
2022-12-12T12:02:19.441Z,10.48
2022-12-12T12:03:19.718Z,10.40
2022-12-12T12:04:19.867Z,10.36
2022-12-12T12:05:19.987Z,10.26
2022-12-12T12:06:20.153Z,10.23
2022-12-12T12:07:20.375Z,10.16
2022-12-12T12:08:20.535Z,10.08
2022-12-12T12:09:20.687Z,10.03
2022-12-12T12:10:24.250Z,9.98
2022-12-12T12:11:21.024Z,9.87
2022-12-12T12:12:21.182Z,9.79
2022-12-12T12:13:21.342Z,9.70
2022-12-12T12:14:21.524Z,9.64
2022-12-12T12:15:21.701Z,9.57
2022-12-12T12:16:21.908Z,9.53
2022-12-12T12:17:22.063Z,9.39
2022-12-12T12:18:26.601Z,9.33
2022-12-12T12:19:23.385Z,9.17
2022-12-12T12:20:22.574Z,9.13
2022-12-12T12:21:22.745Z,9.08
2022-12-12T12:22:22.907Z,8.98
2022-12-12T12:23:23.084Z,8.91
2022-12-12T12:24:23.241Z,8.93
2022-12-12T12:25:23.428Z,8.84
2022-12-12T12:26:23.546Z,8.78
2022-12-12T12:27:23.726Z,8.76
2022-12-12T12:28:23.883Z,8.78
2022-12-12T12:29:24.058Z,8.86
2022-12-12T12:30:24.247Z,8.94
2022-12-12T12:31:24.411Z,8.94
2022-12-12T12:32:24.574Z,9.02
2022-12-12T12:33:24.768Z,9.08
2022-12-12T12:34:24.928Z,9.20
2022-12-12T12:35:25.119Z,9.36
2022-12-12T12:36:25.279Z,9.49
2022-12-12T12:37:25.448Z,9.59
2022-12-12T12:38:25.611Z,9.64
2022-12-12T12:39:25.777Z,9.72
2022-12-12T12:40:25.991Z,9.74
2022-12-12T12:41:26.103Z,9.87
2022-12-12T12:42:26.261Z,9.97
2022-12-12T12:43:26.429Z,10.07
2022-12-12T12:44:26.586Z,10.18
2022-12-12T12:45:26.770Z,10.25
2022-12-12T12:46:26.995Z,10.34
2022-12-12T12:47:27.104Z,10.40
2022-12-12T12:48:27.260Z,10.46
2022-12-12T12:49:27.425Z,10.49
2022-12-12T12:50:27.594Z,10.54
2022-12-12T12:51:27.765Z,10.56
2022-12-12T12:52:27.944Z,10.59
2022-12-12T12:53:28.110Z,10.61
2022-12-12T12:54:28.276Z,10.66
2022-12-12T12:55:28.487Z,10.66
2022-12-12T12:56:28.635Z,10.69
2022-12-12T12:57:28.794Z,10.73
2022-12-12T12:58:28.980Z,10.71
2022-12-12T12:59:29.144Z,10.77
2022-12-12T13:00:29.337Z,10.77
2022-12-12T13:01:29.546Z,10.81
2022-12-12T13:02:29.682Z,10.81
2022-12-12T13:03:29.836Z,10.80
2022-12-12T13:04:30.020Z,10.77
2022-12-12T13:05:30.204Z,10.77
2022-12-12T13:06:30.381Z,10.80
2022-12-12T13:07:30.548Z,10.76
2022-12-12T13:08:30.747Z,10.70
2022-12-12T13:09:30.865Z,10.71
2022-12-12T13:10:31.032Z,10.71
2022-12-12T13:11:31.205Z,10.67
2022-12-12T13:12:31.398Z,10.66
2022-12-12T13:13:31.573Z,10.62
2022-12-12T13:14:31.717Z,10.61
2022-12-12T13:15:31.930Z,10.49
2022-12-12T13:16:32.078Z,10.40
2022-12-12T13:17:32.267Z,10.38